sensor_id;sensor_type;location;lat;lon;timestamp;P1;durP1;ratioP1;P2;durP2;ratioP2
15130;SDS011;7666;50.920;4.628;2023-03-26T00:02:35;18.57;;;3.40;;
15130;SDS011;7666;50.920;4.628;2023-03-26T00:05:24;14.23;;;3.10;;
15130;SDS011;7666;50.920;4.628;2023-03-26T00:08:10;15.63;;;3.27;;
15130;SDS011;7666;50.920;4.628;2023-03-26T00:10:56;14.53;;;3.23;;
15130;SDS011;7666;50.920;4.628;2023-03-26T00:13:42;14.50;;;2.73;;
15130;SDS011;7666;50.920;4.628;2023-03-26T00:16:29;14.03;;;3.40;;
15130;SDS011;7666;50.920;4.628;2023-03-26T00:19:16;8.90;;;2.43;;
15130;SDS011;7666;50.920;4.628;2023-03-26T00:22:02;11.73;;;2.80;;
15130;SDS011;7666;50.920;4.628;2023-03-26T00:24:48;12.70;;;3.10;;
15130;SDS011;7666;50.920;4.628;2023-03-26T00:27:35;15.50;;;3.17;;
15130;SDS011;7666;50.920;4.628;2023-03-26T00:30:22;10.73;;;2.40;;
15130;SDS011;7666;50.920;4.628;2023-03-26T00:33:08;9.43;;;2.53;;
15130;SDS011;7666;50.920;4.628;2023-03-26T00:35:56;11.50;;;2.53;;
15130;SDS011;7666;50.920;4.628;2023-03-26T00:38:45;11.63;;;2.80;;
15130;SDS011;7666;50.920;4.628;2023-03-26T00:41:32;15.47;;;3.13;;
15130;SDS011;7666;50.920;4.628;2023-03-26T00:44:21;14.33;;;3.03;;
15130;SDS011;7666;50.920;4.628;2023-03-26T00:47:07;11.77;;;2.67;;
15130;SDS011;7666;50.920;4.628;2023-03-26T00:49:53;11.90;;;2.57;;
15130;SDS011;7666;50.920;4.628;2023-03-26T00:52:41;11.53;;;2.67;;
15130;SDS011;7666;50.920;4.628;2023-03-26T00:55:28;15.80;;;2.90;;
15130;SDS011;7666;50.920;4.628;2023-03-26T00:58:14;12.23;;;3.03;;
15130;SDS011;7666;50.920;4.628;2023-03-26T01:01:01;10.63;;;2.70;;
15130;SDS011;7666;50.920;4.628;2023-03-26T01:03:49;10.40;;;3.03;;
15130;SDS011;7666;50.920;4.628;2023-03-26T01:06:43;13.47;;;2.77;;
15130;SDS011;7666;50.920;4.628;2023-03-26T01:09:33;13.30;;;2.87;;
15130;SDS011;7666;50.920;4.628;2023-03-26T01:12:22;10.57;;;2.60;;
15130;SDS011;7666;50.920;4.628;2023-03-26T01:15:10;11.63;;;2.97;;
15130;SDS011;7666;50.920;4.628;2023-03-26T01:17:58;12.10;;;2.73;;
15130;SDS011;7666;50.920;4.628;2023-03-26T01:20:44;11.53;;;2.67;;
15130;SDS011;7666;50.920;4.628;2023-03-26T01:23:43;11.10;;;2.60;;
15130;SDS011;7666;50.920;4.628;2023-03-26T01:29:42;9.53;;;2.33;;
15130;SDS011;7666;50.920;4.628;2023-03-26T01:35:58;15.70;;;3.23;;
15130;SDS011;7666;50.920;4.628;2023-03-26T01:38:56;15.30;;;3.60;;
15130;SDS011;7666;50.920;4.628;2023-03-26T01:41:54;15.87;;;3.40;;
15130;SDS011;7666;50.920;4.628;2023-03-26T01:44:46;16.07;;;3.50;;
15130;SDS011;7666;50.920;4.628;2023-03-26T01:47:39;16.30;;;4.13;;
15130;SDS011;7666;50.920;4.628;2023-03-26T01:50:27;14.47;;;3.57;;
15130;SDS011;7666;50.920;4.628;2023-03-26T01:53:13;19.73;;;4.10;;
15130;SDS011;7666;50.920;4.628;2023-03-26T02:02:56;20.17;;;3.93;;
15130;SDS011;7666;50.920;4.628;2023-03-26T02:06:45;18.53;;;4.30;;
15130;SDS011;7666;50.920;4.628;2023-03-26T02:09:17;15.37;;;4.20;;
15130;SDS011;7666;50.920;4.628;2023-03-26T02:12:09;16.57;;;4.30;;
15130;SDS011;7666;50.920;4.628;2023-03-26T02:14:57;15.43;;;4.13;;
15130;SDS011;7666;50.920;4.628;2023-03-26T02:17:45;19.43;;;4.77;;
15130;SDS011;7666;50.920;4.628;2023-03-26T02:20:31;12.40;;;3.83;;
15130;SDS011;7666;50.920;4.628;2023-03-26T02:23:18;20.17;;;4.70;;
15130;SDS011;7666;50.920;4.628;2023-03-26T02:26:06;19.97;;;4.27;;
15130;SDS011;7666;50.920;4.628;2023-03-26T02:28:53;22.10;;;4.57;;
15130;SDS011;7666;50.920;4.628;2023-03-26T02:31:39;18.90;;;4.53;;
15130;SDS011;7666;50.920;4.628;2023-03-26T02:34:26;16.63;;;4.00;;
15130;SDS011;7666;50.920;4.628;2023-03-26T02:37:11;16.03;;;4.13;;
15130;SDS011;7666;50.920;4.628;2023-03-26T02:39:58;15.57;;;4.20;;
15130;SDS011;7666;50.920;4.628;2023-03-26T02:42:45;14.13;;;3.60;;
15130;SDS011;7666;50.920;4.628;2023-03-26T02:45:31;14.33;;;3.80;;
15130;SDS011;7666;50.920;4.628;2023-03-26T02:48:17;14.87;;;3.93;;
15130;SDS011;7666;50.920;4.628;2023-03-26T02:51:04;16.13;;;4.20;;
15130;SDS011;7666;50.920;4.628;2023-03-26T02:53:51;15.47;;;3.63;;
15130;SDS011;7666;50.920;4.628;2023-03-26T02:56:37;15.43;;;3.93;;
15130;SDS011;7666;50.920;4.628;2023-03-26T02:59:24;17.20;;;3.93;;
15130;SDS011;7666;50.920;4.628;2023-03-26T03:02:10;15.23;;;3.60;;
15130;SDS011;7666;50.920;4.628;2023-03-26T03:04:57;15.47;;;3.43;;
15130;SDS011;7666;50.920;4.628;2023-03-26T03:07:45;11.40;;;3.50;;
15130;SDS011;7666;50.920;4.628;2023-03-26T03:10:31;15.53;;;3.40;;
15130;SDS011;7666;50.920;4.628;2023-03-26T03:13:17;14.77;;;3.70;;
15130;SDS011;7666;50.920;4.628;2023-03-26T03:16:03;17.63;;;3.90;;
15130;SDS011;7666;50.920;4.628;2023-03-26T03:18:50;14.23;;;3.43;;
15130;SDS011;7666;50.920;4.628;2023-03-26T03:21:43;19.97;;;3.03;;
15130;SDS011;7666;50.920;4.628;2023-03-26T03:24:29;14.53;;;3.60;;
15130;SDS011;7666;50.920;4.628;2023-03-26T03:27:18;12.40;;;3.20;;
15130;SDS011;7666;50.920;4.628;2023-03-26T03:30:05;13.53;;;2.97;;
15130;SDS011;7666;50.920;4.628;2023-03-26T03:32:52;12.00;;;3.13;;
15130;SDS011;7666;50.920;4.628;2023-03-26T03:35:38;16.83;;;3.80;;
15130;SDS011;7666;50.920;4.628;2023-03-26T03:38:25;12.90;;;3.23;;
15130;SDS011;7666;50.920;4.628;2023-03-26T03:41:11;15.43;;;3.20;;
15130;SDS011;7666;50.920;4.628;2023-03-26T03:43:57;12.53;;;3.30;;
15130;SDS011;7666;50.920;4.628;2023-03-26T03:46:45;16.03;;;3.40;;
15130;SDS011;7666;50.920;4.628;2023-03-26T03:49:33;11.30;;;3.43;;
15130;SDS011;7666;50.920;4.628;2023-03-26T03:52:19;15.00;;;3.50;;
15130;SDS011;7666;50.920;4.628;2023-03-26T03:55:05;15.70;;;3.70;;
15130;SDS011;7666;50.920;4.628;2023-03-26T03:57:52;12.20;;;2.83;;
15130;SDS011;7666;50.920;4.628;2023-03-26T04:00:38;14.63;;;3.80;;
15130;SDS011;7666;50.920;4.628;2023-03-26T04:03:26;10.87;;;2.80;;
15130;SDS011;7666;50.920;4.628;2023-03-26T04:06:12;8.47;;;2.67;;
15130;SDS011;7666;50.920;4.628;2023-03-26T04:08:58;16.90;;;3.43;;
15130;SDS011;7666;50.920;4.628;2023-03-26T04:11:44;12.60;;;3.20;;
15130;SDS011;7666;50.920;4.628;2023-03-26T04:14:30;10.83;;;2.80;;
15130;SDS011;7666;50.920;4.628;2023-03-26T04:17:16;15.10;;;3.03;;
15130;SDS011;7666;50.920;4.628;2023-03-26T04:20:02;16.67;;;3.47;;
15130;SDS011;7666;50.920;4.628;2023-03-26T04:22:50;13.73;;;3.23;;
15130;SDS011;7666;50.920;4.628;2023-03-26T04:25:37;12.40;;;3.13;;
15130;SDS011;7666;50.920;4.628;2023-03-26T04:28:31;12.30;;;3.37;;
15130;SDS011;7666;50.920;4.628;2023-03-26T04:31:26;12.47;;;3.27;;
15130;SDS011;7666;50.920;4.628;2023-03-26T04:34:20;11.97;;;3.60;;
15130;SDS011;7666;50.920;4.628;2023-03-26T04:37:19;17.77;;;3.17;;
15130;SDS011;7666;50.920;4.628;2023-03-26T04:40:12;13.40;;;3.10;;
15130;SDS011;7666;50.920;4.628;2023-03-26T04:43:02;13.70;;;3.70;;
15130;SDS011;7666;50.920;4.628;2023-03-26T04:45:48;13.57;;;3.30;;
15130;SDS011;7666;50.920;4.628;2023-03-26T04:48:34;17.17;;;3.93;;
15130;SDS011;7666;50.920;4.628;2023-03-26T04:51:24;14.07;;;3.07;;
15130;SDS011;7666;50.920;4.628;2023-03-26T04:54:13;15.00;;;3.13;;
15130;SDS011;7666;50.920;4.628;2023-03-26T04:57:26;14.00;;;3.30;;
15130;SDS011;7666;50.920;4.628;2023-03-26T05:00:14;15.37;;;3.80;;
15130;SDS011;7666;50.920;4.628;2023-03-26T05:03:00;15.63;;;3.27;;
15130;SDS011;7666;50.920;4.628;2023-03-26T05:05:46;14.13;;;3.43;;
15130;SDS011;7666;50.920;4.628;2023-03-26T05:08:34;13.40;;;3.33;;
15130;SDS011;7666;50.920;4.628;2023-03-26T05:11:19;12.73;;;3.13;;
15130;SDS011;7666;50.920;4.628;2023-03-26T05:14:06;10.77;;;3.30;;
15130;SDS011;7666;50.920;4.628;2023-03-26T05:16:52;10.50;;;3.23;;
15130;SDS011;7666;50.920;4.628;2023-03-26T05:19:38;13.97;;;2.90;;
15130;SDS011;7666;50.920;4.628;2023-03-26T05:22:25;13.13;;;2.93;;
15130;SDS011;7666;50.920;4.628;2023-03-26T05:25:12;12.93;;;3.30;;
15130;SDS011;7666;50.920;4.628;2023-03-26T05:27:58;12.10;;;2.57;;
15130;SDS011;7666;50.920;4.628;2023-03-26T05:30:44;13.33;;;3.07;;
15130;SDS011;7666;50.920;4.628;2023-03-26T05:33:30;15.20;;;3.13;;
15130;SDS011;7666;50.920;4.628;2023-03-26T05:36:16;11.80;;;2.70;;
15130;SDS011;7666;50.920;4.628;2023-03-26T05:39:03;13.93;;;2.90;;
15130;SDS011;7666;50.920;4.628;2023-03-26T05:41:49;15.23;;;3.33;;
15130;SDS011;7666;50.920;4.628;2023-03-26T05:44:35;11.57;;;3.03;;
15130;SDS011;7666;50.920;4.628;2023-03-26T05:47:21;12.93;;;3.03;;
15130;SDS011;7666;50.920;4.628;2023-03-26T05:50:07;7.33;;;2.70;;
15130;SDS011;7666;50.920;4.628;2023-03-26T05:52:54;13.00;;;2.50;;
15130;SDS011;7666;50.920;4.628;2023-03-26T05:55:42;9.90;;;2.00;;
15130;SDS011;7666;50.920;4.628;2023-03-26T05:58:31;10.10;;;2.53;;
15130;SDS011;7666;50.920;4.628;2023-03-26T06:01:18;8.10;;;2.17;;
15130;SDS011;7666;50.920;4.628;2023-03-26T06:04:05;10.23;;;2.70;;
15130;SDS011;7666;50.920;4.628;2023-03-26T06:06:51;8.30;;;2.30;;
15130;SDS011;7666;50.920;4.628;2023-03-26T06:09:37;10.97;;;2.63;;
15130;SDS011;7666;50.920;4.628;2023-03-26T06:12:24;9.50;;;2.10;;
15130;SDS011;7666;50.920;4.628;2023-03-26T06:15:10;7.13;;;2.00;;
15130;SDS011;7666;50.920;4.628;2023-03-26T06:17:56;7.23;;;2.40;;
15130;SDS011;7666;50.920;4.628;2023-03-26T06:20:42;7.73;;;1.90;;
15130;SDS011;7666;50.920;4.628;2023-03-26T06:23:29;9.30;;;2.47;;
15130;SDS011;7666;50.920;4.628;2023-03-26T06:26:15;8.40;;;2.00;;
15130;SDS011;7666;50.920;4.628;2023-03-26T06:29:01;6.27;;;1.90;;
15130;SDS011;7666;50.920;4.628;2023-03-26T06:31:47;7.07;;;1.87;;
15130;SDS011;7666;50.920;4.628;2023-03-26T06:34:33;9.00;;;2.10;;
15130;SDS011;7666;50.920;4.628;2023-03-26T06:37:19;6.13;;;1.90;;
15130;SDS011;7666;50.920;4.628;2023-03-26T06:40:05;9.47;;;2.23;;
15130;SDS011;7666;50.920;4.628;2023-03-26T06:42:54;6.83;;;1.70;;
15130;SDS011;7666;50.920;4.628;2023-03-26T06:45:41;5.87;;;1.77;;
15130;SDS011;7666;50.920;4.628;2023-03-26T06:48:27;8.40;;;2.23;;
15130;SDS011;7666;50.920;4.628;2023-03-26T06:51:13;7.87;;;1.97;;
15130;SDS011;7666;50.920;4.628;2023-03-26T06:54:00;11.30;;;2.10;;
15130;SDS011;7666;50.920;4.628;2023-03-26T06:56:46;9.50;;;2.00;;
15130;SDS011;7666;50.920;4.628;2023-03-26T06:59:32;6.70;;;2.07;;
15130;SDS011;7666;50.920;4.628;2023-03-26T07:02:18;8.73;;;2.43;;
15130;SDS011;7666;50.920;4.628;2023-03-26T07:05:04;8.07;;;2.13;;
15130;SDS011;7666;50.920;4.628;2023-03-26T07:07:50;10.30;;;2.33;;
15130;SDS011;7666;50.920;4.628;2023-03-26T07:10:36;10.43;;;2.20;;
15130;SDS011;7666;50.920;4.628;2023-03-26T07:13:22;7.37;;;2.10;;
15130;SDS011;7666;50.920;4.628;2023-03-26T07:16:08;7.20;;;1.80;;
15130;SDS011;7666;50.920;4.628;2023-03-26T07:18:54;9.10;;;2.17;;
15130;SDS011;7666;50.920;4.628;2023-03-26T07:21:40;7.17;;;2.10;;
15130;SDS011;7666;50.920;4.628;2023-03-26T07:24:27;12.27;;;2.07;;
15130;SDS011;7666;50.920;4.628;2023-03-26T07:30:30;7.73;;;2.30;;
15130;SDS011;7666;50.920;4.628;2023-03-26T07:33:34;6.97;;;2.10;;
15130;SDS011;7666;50.920;4.628;2023-03-26T07:36:31;7.87;;;1.80;;
15130;SDS011;7666;50.920;4.628;2023-03-26T07:45:32;5.53;;;1.40;;
15130;SDS011;7666;50.920;4.628;2023-03-26T07:48:25;5.50;;;1.57;;
15130;SDS011;7666;50.920;4.628;2023-03-26T07:51:15;6.83;;;1.80;;
15130;SDS011;7666;50.920;4.628;2023-03-26T07:54:02;6.10;;;2.07;;
15130;SDS011;7666;50.920;4.628;2023-03-26T08:05:56;4.40;;;1.50;;
15130;SDS011;7666;50.920;4.628;2023-03-26T08:08:47;3.17;;;1.10;;
15130;SDS011;7666;50.920;4.628;2023-03-26T08:14:51;5.20;;;1.33;;
15130;SDS011;7666;50.920;4.628;2023-03-26T08:17:45;5.47;;;1.73;;
15130;SDS011;7666;50.920;4.628;2023-03-26T08:20:44;5.93;;;1.73;;
15130;SDS011;7666;50.920;4.628;2023-03-26T08:23:35;5.23;;;1.83;;
15130;SDS011;7666;50.920;4.628;2023-03-26T08:26:42;6.07;;;1.93;;
15130;SDS011;7666;50.920;4.628;2023-03-26T08:29:46;5.50;;;1.77;;
15130;SDS011;7666;50.920;4.628;2023-03-26T08:32:56;6.77;;;1.97;;
15130;SDS011;7666;50.920;4.628;2023-03-26T08:35:44;4.70;;;1.40;;
15130;SDS011;7666;50.920;4.628;2023-03-26T08:38:31;4.93;;;1.77;;
15130;SDS011;7666;50.920;4.628;2023-03-26T08:44:15;5.77;;;1.83;;
15130;SDS011;7666;50.920;4.628;2023-03-26T09:06:20;3.30;;;1.50;;
15130;SDS011;7666;50.920;4.628;2023-03-26T09:12:43;5.97;;;1.63;;
15130;SDS011;7666;50.920;4.628;2023-03-26T09:21:57;4.93;;;1.93;;
15130;SDS011;7666;50.920;4.628;2023-03-26T09:24:59;3.63;;;1.50;;
15130;SDS011;7666;50.920;4.628;2023-03-26T09:34:31;4.97;;;1.63;;
15130;SDS011;7666;50.920;4.628;2023-03-26T09:41:00;7.43;;;1.70;;
15130;SDS011;7666;50.920;4.628;2023-03-26T09:56:45;4.07;;;1.87;;
15130;SDS011;7666;50.920;4.628;2023-03-26T10:03:00;2.67;;;1.40;;
15130;SDS011;7666;50.920;4.628;2023-03-26T10:05:57;3.17;;;1.70;;
15130;SDS011;7666;50.920;4.628;2023-03-26T10:09:01;3.00;;;1.70;;
15130;SDS011;7666;50.920;4.628;2023-03-26T10:46:19;3.40;;;1.73;;
15130;SDS011;7666;50.920;4.628;2023-03-26T10:52:08;5.63;;;1.97;;
15130;SDS011;7666;50.920;4.628;2023-03-26T10:55:00;6.00;;;2.37;;
15130;SDS011;7666;50.920;4.628;2023-03-26T10:58:38;3.90;;;1.70;;
15130;SDS011;7666;50.920;4.628;2023-03-26T11:01:10;4.10;;;1.63;;
15130;SDS011;7666;50.920;4.628;2023-03-26T11:07:22;4.03;;;1.90;;
15130;SDS011;7666;50.920;4.628;2023-03-26T11:10:15;4.27;;;2.10;;
15130;SDS011;7666;50.920;4.628;2023-03-26T11:13:18;3.37;;;1.50;;
15130;SDS011;7666;50.920;4.628;2023-03-26T11:28:47;3.73;;;1.90;;
15130;SDS011;7666;50.920;4.628;2023-03-26T11:38:00;4.10;;;1.80;;
15130;SDS011;7666;50.920;4.628;2023-03-26T11:41:13;4.40;;;1.80;;
15130;SDS011;7666;50.920;4.628;2023-03-26T11:44:26;4.80;;;1.70;;
15130;SDS011;7666;50.920;4.628;2023-03-26T11:47:12;4.23;;;1.60;;
15130;SDS011;7666;50.920;4.628;2023-03-26T11:50:03;4.20;;;1.70;;
15130;SDS011;7666;50.920;4.628;2023-03-26T11:52:54;4.57;;;1.83;;
15130;SDS011;7666;50.920;4.628;2023-03-26T11:55:46;2.83;;;1.70;;
15130;SDS011;7666;50.920;4.628;2023-03-26T12:04:38;4.77;;;2.00;;
15130;SDS011;7666;50.920;4.628;2023-03-26T12:07:34;3.93;;;2.00;;
15130;SDS011;7666;50.920;4.628;2023-03-26T12:10:21;4.20;;;1.93;;
15130;SDS011;7666;50.920;4.628;2023-03-26T12:13:31;3.00;;;2.00;;
15130;SDS011;7666;50.920;4.628;2023-03-26T12:16:19;2.87;;;1.63;;
15130;SDS011;7666;50.920;4.628;2023-03-26T12:19:17;2.10;;;1.77;;
15130;SDS011;7666;50.920;4.628;2023-03-26T12:22:04;2.63;;;1.30;;
15130;SDS011;7666;50.920;4.628;2023-03-26T12:31:01;2.97;;;1.40;;
15130;SDS011;7666;50.920;4.628;2023-03-26T12:37:32;1.93;;;0.90;;
15130;SDS011;7666;50.920;4.628;2023-03-26T12:43:21;2.37;;;1.30;;
15130;SDS011;7666;50.920;4.628;2023-03-26T12:46:34;2.13;;;1.10;;
15130;SDS011;7666;50.920;4.628;2023-03-26T12:49:19;2.40;;;1.13;;
15130;SDS011;7666;50.920;4.628;2023-03-26T12:52:08;4.40;;;1.77;;
15130;SDS011;7666;50.920;4.628;2023-03-26T13:08:05;1.93;;;1.40;;
15130;SDS011;7666;50.920;4.628;2023-03-26T13:10:40;2.07;;;1.30;;
15130;SDS011;7666;50.920;4.628;2023-03-26T13:22:38;2.20;;;1.50;;
15130;SDS011;7666;50.920;4.628;2023-03-26T13:29:14;0.80;;;0.80;;
15130;SDS011;7666;50.920;4.628;2023-03-26T13:32:23;3.60;;;1.10;;
15130;SDS011;7666;50.920;4.628;2023-03-26T13:48:10;1.33;;;0.90;;
15130;SDS011;7666;50.920;4.628;2023-03-26T13:51:03;1.67;;;0.90;;
15130;SDS011;7666;50.920;4.628;2023-03-26T13:54:06;1.47;;;0.70;;
15130;SDS011;7666;50.920;4.628;2023-03-26T13:56:57;1.10;;;1.00;;
15130;SDS011;7666;50.920;4.628;2023-03-26T13:59:51;2.23;;;0.90;;
15130;SDS011;7666;50.920;4.628;2023-03-26T14:02:43;1.10;;;0.90;;
15130;SDS011;7666;50.920;4.628;2023-03-26T14:05:34;1.90;;;1.20;;
15130;SDS011;7666;50.920;4.628;2023-03-26T14:08:34;1.03;;;0.90;;
15130;SDS011;7666;50.920;4.628;2023-03-26T14:11:46;1.87;;;1.00;;
15130;SDS011;7666;50.920;4.628;2023-03-26T14:14:45;1.47;;;0.90;;
15130;SDS011;7666;50.920;4.628;2023-03-26T14:17:56;1.70;;;1.10;;
15130;SDS011;7666;50.920;4.628;2023-03-26T14:20:53;1.10;;;1.00;;
15130;SDS011;7666;50.920;4.628;2023-03-26T14:33:33;1.67;;;0.80;;
15130;SDS011;7666;50.920;4.628;2023-03-26T14:42:54;2.47;;;1.10;;
15130;SDS011;7666;50.920;4.628;2023-03-26T14:45:57;1.10;;;1.00;;
15130;SDS011;7666;50.920;4.628;2023-03-26T14:49:19;1.20;;;1.10;;
15130;SDS011;7666;50.920;4.628;2023-03-26T14:52:33;2.90;;;1.10;;
15130;SDS011;7666;50.920;4.628;2023-03-26T15:05:41;1.70;;;1.60;;
15130;SDS011;7666;50.920;4.628;2023-03-26T15:15:17;3.00;;;1.50;;
15130;SDS011;7666;50.920;4.628;2023-03-26T15:27:36;2.27;;;2.00;;
15130;SDS011;7666;50.920;4.628;2023-03-26T15:30:50;1.87;;;1.50;;
15130;SDS011;7666;50.920;4.628;2023-03-26T15:44:05;3.57;;;2.87;;
15130;SDS011;7666;50.920;4.628;2023-03-26T15:53:51;3.70;;;3.07;;
15130;SDS011;7666;50.920;4.628;2023-03-26T16:00:20;7.30;;;4.83;;
15130;SDS011;7666;50.920;4.628;2023-03-26T16:03:15;9.90;;;6.27;;
15130;SDS011;7666;50.920;4.628;2023-03-26T16:18:39;16.57;;;8.17;;
15130;SDS011;7666;50.920;4.628;2023-03-26T16:21:35;13.87;;;7.17;;
15130;SDS011;7666;50.920;4.628;2023-03-26T16:24:27;12.20;;;6.40;;
15130;SDS011;7666;50.920;4.628;2023-03-26T16:27:25;17.73;;;6.50;;
15130;SDS011;7666;50.920;4.628;2023-03-26T16:33:15;16.37;;;6.03;;
15130;SDS011;7666;50.920;4.628;2023-03-26T16:36:25;14.57;;;5.13;;
15130;SDS011;7666;50.920;4.628;2023-03-26T16:39:39;12.87;;;4.87;;
15130;SDS011;7666;50.920;4.628;2023-03-26T16:42:31;15.40;;;5.23;;
15130;SDS011;7666;50.920;4.628;2023-03-26T16:48:31;12.83;;;4.33;;
15130;SDS011;7666;50.920;4.628;2023-03-26T17:01:19;13.40;;;4.93;;
15130;SDS011;7666;50.920;4.628;2023-03-26T17:04:32;12.60;;;4.67;;
15130;SDS011;7666;50.920;4.628;2023-03-26T17:07:31;16.07;;;5.17;;
15130;SDS011;7666;50.920;4.628;2023-03-26T17:13:43;16.40;;;5.43;;
15130;SDS011;7666;50.920;4.628;2023-03-26T17:20:16;19.47;;;5.07;;
15130;SDS011;7666;50.920;4.628;2023-03-26T17:32:13;14.03;;;3.90;;
15130;SDS011;7666;50.920;4.628;2023-03-26T17:34:59;11.63;;;3.67;;
15130;SDS011;7666;50.920;4.628;2023-03-26T17:37:48;10.43;;;3.13;;
15130;SDS011;7666;50.920;4.628;2023-03-26T17:49:26;12.17;;;2.77;;
15130;SDS011;7666;50.920;4.628;2023-03-26T17:52:17;12.67;;;3.23;;
15130;SDS011;7666;50.920;4.628;2023-03-26T17:55:11;9.03;;;2.67;;
15130;SDS011;7666;50.920;4.628;2023-03-26T17:58:06;10.63;;;2.67;;
15130;SDS011;7666;50.920;4.628;2023-03-26T18:04:18;10.80;;;2.60;;
15130;SDS011;7666;50.920;4.628;2023-03-26T18:07:22;9.90;;;2.73;;
15130;SDS011;7666;50.920;4.628;2023-03-26T18:10:36;9.20;;;2.43;;
15130;SDS011;7666;50.920;4.628;2023-03-26T18:16:22;8.67;;;2.57;;
15130;SDS011;7666;50.920;4.628;2023-03-26T18:19:16;8.93;;;2.47;;
15130;SDS011;7666;50.920;4.628;2023-03-26T18:22:03;9.87;;;3.10;;
15130;SDS011;7666;50.920;4.628;2023-03-26T18:24:53;11.93;;;2.63;;
15130;SDS011;7666;50.920;4.628;2023-03-26T18:27:44;10.10;;;2.53;;
15130;SDS011;7666;50.920;4.628;2023-03-26T18:30:31;6.80;;;2.27;;
15130;SDS011;7666;50.920;4.628;2023-03-26T18:33:28;7.13;;;2.47;;
15130;SDS011;7666;50.920;4.628;2023-03-26T18:36:27;7.00;;;2.80;;
15130;SDS011;7666;50.920;4.628;2023-03-26T18:39:15;8.40;;;2.73;;
15130;SDS011;7666;50.920;4.628;2023-03-26T18:42:03;6.60;;;2.63;;
15130;SDS011;7666;50.920;4.628;2023-03-26T18:44:50;8.60;;;2.40;;
15130;SDS011;7666;50.920;4.628;2023-03-26T18:47:37;13.57;;;3.20;;
15130;SDS011;7666;50.920;4.628;2023-03-26T18:50:28;12.10;;;3.10;;
15130;SDS011;7666;50.920;4.628;2023-03-26T18:53:21;10.60;;;2.67;;
15130;SDS011;7666;50.920;4.628;2023-03-26T18:56:25;7.57;;;2.70;;
15130;SDS011;7666;50.920;4.628;2023-03-26T18:59:29;9.33;;;2.60;;
15130;SDS011;7666;50.920;4.628;2023-03-26T19:02:19;13.07;;;2.37;;
15130;SDS011;7666;50.920;4.628;2023-03-26T19:05:08;8.23;;;2.30;;
15130;SDS011;7666;50.920;4.628;2023-03-26T19:08:02;9.03;;;2.80;;
15130;SDS011;7666;50.920;4.628;2023-03-26T19:10:50;9.97;;;2.33;;
15130;SDS011;7666;50.920;4.628;2023-03-26T19:13:38;10.13;;;2.67;;
15130;SDS011;7666;50.920;4.628;2023-03-26T19:16:27;10.50;;;3.17;;
15130;SDS011;7666;50.920;4.628;2023-03-26T19:19:19;13.23;;;3.17;;
15130;SDS011;7666;50.920;4.628;2023-03-26T19:22:07;7.67;;;2.07;;
15130;SDS011;7666;50.920;4.628;2023-03-26T19:24:56;9.10;;;2.77;;
15130;SDS011;7666;50.920;4.628;2023-03-26T19:27:45;7.90;;;2.33;;
15130;SDS011;7666;50.920;4.628;2023-03-26T19:30:32;9.97;;;2.37;;
15130;SDS011;7666;50.920;4.628;2023-03-26T19:33:23;10.73;;;2.90;;
15130;SDS011;7666;50.920;4.628;2023-03-26T19:36:18;11.00;;;2.67;;
15130;SDS011;7666;50.920;4.628;2023-03-26T19:39:10;7.53;;;2.10;;
15130;SDS011;7666;50.920;4.628;2023-03-26T19:41:57;12.43;;;3.03;;
15130;SDS011;7666;50.920;4.628;2023-03-26T19:44:43;11.37;;;2.77;;
15130;SDS011;7666;50.920;4.628;2023-03-26T19:47:39;12.60;;;2.80;;
15130;SDS011;7666;50.920;4.628;2023-03-26T19:50:28;10.90;;;2.37;;
15130;SDS011;7666;50.920;4.628;2023-03-26T19:53:17;11.43;;;2.63;;
15130;SDS011;7666;50.920;4.628;2023-03-26T19:56:11;11.80;;;2.27;;
15130;SDS011;7666;50.920;4.628;2023-03-26T19:58:59;11.93;;;2.70;;
15130;SDS011;7666;50.920;4.628;2023-03-26T20:01:45;11.27;;;2.40;;
15130;SDS011;7666;50.920;4.628;2023-03-26T20:04:31;10.60;;;2.23;;
15130;SDS011;7666;50.920;4.628;2023-03-26T20:07:18;6.60;;;2.10;;
15130;SDS011;7666;50.920;4.628;2023-03-26T20:10:06;10.60;;;2.40;;
15130;SDS011;7666;50.920;4.628;2023-03-26T20:12:53;10.97;;;2.33;;
15130;SDS011;7666;50.920;4.628;2023-03-26T20:15:40;8.60;;;2.33;;
15130;SDS011;7666;50.920;4.628;2023-03-26T20:18:30;7.27;;;1.97;;
15130;SDS011;7666;50.920;4.628;2023-03-26T20:21:16;8.07;;;2.03;;
15130;SDS011;7666;50.920;4.628;2023-03-26T20:24:10;9.33;;;2.20;;
15130;SDS011;7666;50.920;4.628;2023-03-26T20:26:58;8.10;;;2.20;;
15130;SDS011;7666;50.920;4.628;2023-03-26T20:29:44;10.03;;;2.50;;
15130;SDS011;7666;50.920;4.628;2023-03-26T20:32:30;8.90;;;2.40;;
15130;SDS011;7666;50.920;4.628;2023-03-26T20:35:22;10.83;;;2.40;;
15130;SDS011;7666;50.920;4.628;2023-03-26T20:38:09;8.43;;;2.30;;
15130;SDS011;7666;50.920;4.628;2023-03-26T20:40:56;8.30;;;2.30;;
15130;SDS011;7666;50.920;4.628;2023-03-26T20:43:42;8.87;;;2.50;;
15130;SDS011;7666;50.920;4.628;2023-03-26T20:46:28;10.03;;;2.33;;
15130;SDS011;7666;50.920;4.628;2023-03-26T20:49:15;9.03;;;2.33;;
15130;SDS011;7666;50.920;4.628;2023-03-26T20:52:02;12.30;;;2.20;;
15130;SDS011;7666;50.920;4.628;2023-03-26T20:54:48;8.77;;;2.10;;
15130;SDS011;7666;50.920;4.628;2023-03-26T20:57:34;8.70;;;2.10;;
15130;SDS011;7666;50.920;4.628;2023-03-26T21:00:20;6.27;;;1.83;;
15130;SDS011;7666;50.920;4.628;2023-03-26T21:03:08;5.70;;;1.60;;
15130;SDS011;7666;50.920;4.628;2023-03-26T21:06:00;9.83;;;2.27;;
15130;SDS011;7666;50.920;4.628;2023-03-26T21:08:46;7.27;;;2.00;;
15130;SDS011;7666;50.920;4.628;2023-03-26T21:14:35;12.13;;;2.60;;
15130;SDS011;7666;50.920;4.628;2023-03-26T21:17:25;10.50;;;2.60;;
15130;SDS011;7666;50.920;4.628;2023-03-26T21:20:12;9.40;;;2.30;;
15130;SDS011;7666;50.920;4.628;2023-03-26T21:26:08;9.20;;;2.13;;
15130;SDS011;7666;50.920;4.628;2023-03-26T21:29:02;9.00;;;2.20;;
15130;SDS011;7666;50.920;4.628;2023-03-26T21:31:48;9.33;;;1.93;;
15130;SDS011;7666;50.920;4.628;2023-03-26T21:34:34;7.83;;;2.20;;
15130;SDS011;7666;50.920;4.628;2023-03-26T21:37:21;11.47;;;2.17;;
15130;SDS011;7666;50.920;4.628;2023-03-26T21:40:10;9.43;;;1.93;;
15130;SDS011;7666;50.920;4.628;2023-03-26T21:43:01;8.30;;;2.33;;
15130;SDS011;7666;50.920;4.628;2023-03-26T21:45:47;6.60;;;1.93;;
15130;SDS011;7666;50.920;4.628;2023-03-26T21:48:34;8.37;;;2.40;;
15130;SDS011;7666;50.920;4.628;2023-03-26T21:51:20;10.07;;;2.30;;
15130;SDS011;7666;50.920;4.628;2023-03-26T21:54:14;11.47;;;2.50;;
15130;SDS011;7666;50.920;4.628;2023-03-26T22:00:18;6.40;;;2.20;;
15130;SDS011;7666;50.920;4.628;2023-03-26T22:03:26;10.03;;;2.10;;
15130;SDS011;7666;50.920;4.628;2023-03-26T22:09:15;7.50;;;1.77;;
15130;SDS011;7666;50.920;4.628;2023-03-26T22:12:02;9.00;;;2.03;;
15130;SDS011;7666;50.920;4.628;2023-03-26T22:14:50;7.97;;;1.70;;
15130;SDS011;7666;50.920;4.628;2023-03-26T22:17:36;10.33;;;2.47;;
15130;SDS011;7666;50.920;4.628;2023-03-26T22:20:24;8.83;;;2.30;;
15130;SDS011;7666;50.920;4.628;2023-03-26T22:23:11;9.70;;;2.10;;
15130;SDS011;7666;50.920;4.628;2023-03-26T22:25:58;7.43;;;1.97;;
15130;SDS011;7666;50.920;4.628;2023-03-26T22:28:44;9.07;;;2.00;;
15130;SDS011;7666;50.920;4.628;2023-03-26T22:31:31;6.80;;;1.93;;
15130;SDS011;7666;50.920;4.628;2023-03-26T22:34:17;9.27;;;2.17;;
15130;SDS011;7666;50.920;4.628;2023-03-26T22:37:04;8.10;;;1.80;;
15130;SDS011;7666;50.920;4.628;2023-03-26T22:39:50;12.70;;;2.30;;
15130;SDS011;7666;50.920;4.628;2023-03-26T22:42:36;10.33;;;2.47;;
15130;SDS011;7666;50.920;4.628;2023-03-26T22:45:22;7.97;;;1.87;;
15130;SDS011;7666;50.920;4.628;2023-03-26T22:48:08;8.73;;;2.37;;
15130;SDS011;7666;50.920;4.628;2023-03-26T22:51:02;6.93;;;1.80;;
15130;SDS011;7666;50.920;4.628;2023-03-26T22:53:49;9.73;;;2.27;;
15130;SDS011;7666;50.920;4.628;2023-03-26T22:56:35;8.60;;;2.00;;
15130;SDS011;7666;50.920;4.628;2023-03-26T22:59:21;9.93;;;2.00;;
15130;SDS011;7666;50.920;4.628;2023-03-26T23:02:07;12.60;;;2.10;;
15130;SDS011;7666;50.920;4.628;2023-03-26T23:04:54;12.90;;;2.50;;